Independence — WDD6659 — position and weather

sailwx.info

Track history (hours):
 
Tides and Currents Weather Stations Pressure Air Temp Water Temp Dewpoint Dewpoint Depression Visibility Wind Speed Wind Dir Waves Ship Positions

Independence

Owner: Sortwell, Inc. DBA AmNav Maritime Services, Oakland, CA. More information available from US FCC via Universal Licensing System and Coast Guard Vessel Documentation Center.

Last reported at 2016-Feb-11 13:07 UTC. Time now 2016-Feb-11 21:20 UTC.
Position N 33°46' W 118°16'.

Length 24 m; draft 4.9 m.

Type: Tug. MMSI: 367175860.

Date/timePositionNaut miles runAvg speedWind from/ knotsBaromVisibWave heightAir tempDewpointWater temp
2016-Feb-11 13:07N 33°46' W 118°16'0 0.2
2016-Feb-11 12:32N 33°46' W 118°16'3 0.4
2016-Feb-11 05:34N 33°45' W 118°13'0 0.0
2016-Feb-11 04:33N 33°45' W 118°13'3 0.4
2016-Feb-10 21:31N 33°44' W 118°16'0 0.0
2016-Feb-10 20:31N 33°44' W 118°16'0 0.0
2016-Feb-10 19:33N 33°44' W 118°16'0 0.0
2016-Feb-10 18:33N 33°44' W 118°16'0 0.0
2016-Feb-10 17:33N 33°44' W 118°16'0 0.0
2016-Feb-10 15:33N 33°44' W 118°16'2 0.9
2016-Feb-10 13:33N 33°46' W 118°17'2 1.9
2016-Feb-10 12:32N 33°44' W 118°16'0 0.0
2016-Feb-10 11:33N 33°44' W 118°16'0 0.0
2016-Feb-10 10:33N 33°44' W 118°16'0 0.0
2016-Feb-10 09:33N 33°44' W 118°16'0 0.0
2016-Feb-10 08:33N 33°44' W 118°16'0 0.0
2016-Feb-10 07:33N 33°44' W 118°16'0 0.0
2016-Feb-10 06:33N 33°44' W 118°16'0 0.0
2016-Feb-10 05:33N 33°44' W 118°16'5 1.3
2016-Feb-10 01:25N 33°44' W 118°10'3 3.2
2016-Feb-10 00:33N 33°45' W 118°13'0 0.3
2016-Feb-09 23:34N 33°45' W 118°13'3 0.1
2016-Feb-08 23:11N 33°45' W 118°17'3 0.3
2016-Feb-08 13:18N 33°44' W 118°12'1 1.3
2016-Feb-08 12:33N 33°45' W 118°13'1 1.2
2016-Feb-08 11:34N 33°46' W 118°14'1 0.1
2016-Feb-08 01:34N 33°45' W 118°13'0 0.1
2016-Feb-08 00:33N 33°45' W 118°13'3 0.4
2016-Feb-07 16:33N 33°45' W 118°17'1 1.1
2016-Feb-07 15:33N 33°46' W 118°15'2 0.1
2016-Feb-07 03:10N 33°44' W 118°15'2 0.2
2016-Feb-06 15:32N 33°45' W 118°12'2 2.0
2016-Feb-06 14:29N 33°44' W 118°10'5 5.1
2016-Feb-06 13:27N 33°45' W 118°16'1 0.6
2016-Feb-06 12:23N 33°46' W 118°17'2 0.1
2016-Feb-05 03:03N 33°44' W 118°17'4 0.3
2016-Feb-04 13:34N 33°44' W 118°12'1 0.9
2016-Feb-04 12:30N 33°44' W 118°12'3 0.3
2016-Feb-04 01:33N 33°44' W 118°17'0 0.0
2016-Feb-04 00:04N 33°44' W 118°17'0 0.0
2016-Feb-03 19:28N 33°44' W 118°17'0 0.0
2016-Feb-03 18:04N 33°44' W 118°17'1 0.1
2016-Feb-03 03:05N 33°45' W 118°16'1 2.2
2016-Feb-03 02:33N 33°46' W 118°15'2 0.1
2016-Feb-02 02:18N 33°45' W 118°17'  
Track history (hours):
 
Tides and Currents Weather Stations Pressure Air Temp Water Temp Dewpoint Dewpoint Depression Visibility Wind Speed Wind Dir Waves Ship Positions

Independence

Owner: Sortwell, Inc. DBA AmNav Maritime Services, Oakland, CA. More information available from US FCC via Universal Licensing System and Coast Guard Vessel Documentation Center.

Last reported at 2016-Feb-11 13:07 UTC. Time now 2016-Feb-11 21:20 UTC.
Position N 33°46' W 118°16'.

Length 24 m; draft 4.9 m.

Type: Tug. MMSI: 367175860.

Date/timePositionNaut miles runAvg speedWind from/ knotsBaromVisibWave heightAir tempDewpointWater temp
2016-Feb-11 13:07N 33°46' W 118°16'0 0.2
2016-Feb-11 12:32N 33°46' W 118°16'3 0.4
2016-Feb-11 05:34N 33°45' W 118°13'0 0.0
2016-Feb-11 04:33N 33°45' W 118°13'3 0.4
2016-Feb-10 21:31N 33°44' W 118°16'0 0.0
2016-Feb-10 20:31N 33°44' W 118°16'0 0.0
2016-Feb-10 19:33N 33°44' W 118°16'0 0.0
2016-Feb-10 18:33N 33°44' W 118°16'0 0.0
2016-Feb-10 17:33N 33°44' W 118°16'0 0.0
2016-Feb-10 15:33N 33°44' W 118°16'2 0.9
2016-Feb-10 13:33N 33°46' W 118°17'2 1.9
2016-Feb-10 12:32N 33°44' W 118°16'0 0.0
2016-Feb-10 11:33N 33°44' W 118°16'0 0.0
2016-Feb-10 10:33N 33°44' W 118°16'0 0.0
2016-Feb-10 09:33N 33°44' W 118°16'0 0.0
2016-Feb-10 08:33N 33°44' W 118°16'0 0.0
2016-Feb-10 07:33N 33°44' W 118°16'0 0.0
2016-Feb-10 06:33N 33°44' W 118°16'0 0.0
2016-Feb-10 05:33N 33°44' W 118°16'5 1.3
2016-Feb-10 01:25N 33°44' W 118°10'3 3.2
2016-Feb-10 00:33N 33°45' W 118°13'0 0.3
2016-Feb-09 23:34N 33°45' W 118°13'3 0.1
2016-Feb-08 23:11N 33°45' W 118°17'3 0.3
2016-Feb-08 13:18N 33°44' W 118°12'1 1.3
2016-Feb-08 12:33N 33°45' W 118°13'1 1.2
2016-Feb-08 11:34N 33°46' W 118°14'1 0.1
2016-Feb-08 01:34N 33°45' W 118°13'0 0.1
2016-Feb-08 00:33N 33°45' W 118°13'3 0.4
2016-Feb-07 16:33N 33°45' W 118°17'1 1.1
2016-Feb-07 15:33N 33°46' W 118°15'2 0.1
2016-Feb-07 03:10N 33°44' W 118°15'2 0.2
2016-Feb-06 15:32N 33°45' W 118°12'2 2.0
2016-Feb-06 14:29N 33°44' W 118°10'5 5.1
2016-Feb-06 13:27N 33°45' W 118°16'1 0.6
2016-Feb-06 12:23N 33°46' W 118°17'2 0.1
2016-Feb-05 03:03N 33°44' W 118°17'4 0.3
2016-Feb-04 13:34N 33°44' W 118°12'1 0.9
2016-Feb-04 12:30N 33°44' W 118°12'3 0.3
2016-Feb-04 01:33N 33°44' W 118°17'0 0.0
2016-Feb-04 00:04N 33°44' W 118°17'0 0.0
2016-Feb-03 19:28N 33°44' W 118°17'0 0.0
2016-Feb-03 18:04N 33°44' W 118°17'1 0.1
2016-Feb-03 03:05N 33°45' W 118°16'1 2.2
2016-Feb-03 02:33N 33°46' W 118°15'2 0.1
2016-Feb-02 02:18N 33°45' W 118°17'  

Dump ship's entire track history